sensor_id;sensor_type;location;lat;lon;timestamp;temperature;humidity
11650;DHT22;5881;48.522;7.682;2023-01-25T00:01:41;2.80;99.90
11650;DHT22;5881;48.522;7.682;2023-01-25T00:04:07;2.80;99.90
11650;DHT22;5881;48.522;7.682;2023-01-25T00:06:32;2.80;99.90
11650;DHT22;5881;48.522;7.682;2023-01-25T00:08:58;2.80;99.90
11650;DHT22;5881;48.522;7.682;2023-01-25T00:11:24;2.80;99.90
11650;DHT22;5881;48.522;7.682;2023-01-25T00:13:52;2.80;99.90
11650;DHT22;5881;48.522;7.682;2023-01-25T00:16:18;2.80;99.90
11650;DHT22;5881;48.522;7.682;2023-01-25T00:18:43;2.80;99.90
11650;DHT22;5881;48.522;7.682;2023-01-25T00:21:13;2.80;99.90
11650;DHT22;5881;48.522;7.682;2023-01-25T00:23:38;2.80;99.90
11650;DHT22;5881;48.522;7.682;2023-01-25T00:26:04;2.80;99.90
11650;DHT22;5881;48.522;7.682;2023-01-25T00:28:30;2.80;99.90
11650;DHT22;5881;48.522;7.682;2023-01-25T00:31:03;2.80;99.90
11650;DHT22;5881;48.522;7.682;2023-01-25T00:33:37;2.80;99.90
11650;DHT22;5881;48.522;7.682;2023-01-25T00:36:40;2.80;99.90
11650;DHT22;5881;48.522;7.682;2023-01-25T00:39:09;2.80;99.90
11650;DHT22;5881;48.522;7.682;2023-01-25T00:41:35;2.80;99.90
11650;DHT22;5881;48.522;7.682;2023-01-25T00:44:01;2.80;99.90
11650;DHT22;5881;48.522;7.682;2023-01-25T00:46:26;2.80;99.90
11650;DHT22;5881;48.522;7.682;2023-01-25T00:48:53;2.80;99.90
11650;DHT22;5881;48.522;7.682;2023-01-25T00:51:19;2.80;99.90
11650;DHT22;5881;48.522;7.682;2023-01-25T00:53:45;2.80;99.90
11650;DHT22;5881;48.522;7.682;2023-01-25T00:56:11;2.80;99.90
11650;DHT22;5881;48.522;7.682;2023-01-25T00:58:36;2.90;99.90
11650;DHT22;5881;48.522;7.682;2023-01-25T01:01:02;2.80;99.90
11650;DHT22;5881;48.522;7.682;2023-01-25T01:03:28;2.80;99.90
11650;DHT22;5881;48.522;7.682;2023-01-25T01:06:08;2.80;99.90
11650;DHT22;5881;48.522;7.682;2023-01-25T01:08:37;2.80;99.90
11650;DHT22;5881;48.522;7.682;2023-01-25T01:11:06;2.80;99.90
11650;DHT22;5881;48.522;7.682;2023-01-25T01:13:33;2.70;99.90
11650;DHT22;5881;48.522;7.682;2023-01-25T01:16:03;2.80;99.90
11650;DHT22;5881;48.522;7.682;2023-01-25T01:18:34;2.70;99.90
11650;DHT22;5881;48.522;7.682;2023-01-25T01:21:00;2.70;99.90
11650;DHT22;5881;48.522;7.682;2023-01-25T01:23:28;2.80;99.90
11650;DHT22;5881;48.522;7.682;2023-01-25T01:25:53;3.00;99.90
11650;DHT22;5881;48.522;7.682;2023-01-25T01:28:19;2.70;99.90
11650;DHT22;5881;48.522;7.682;2023-01-25T01:30:45;2.70;99.90
11650;DHT22;5881;48.522;7.682;2023-01-25T01:33:10;2.70;99.90
11650;DHT22;5881;48.522;7.682;2023-01-25T01:35:36;2.70;99.90
11650;DHT22;5881;48.522;7.682;2023-01-25T01:38:02;2.70;99.90
11650;DHT22;5881;48.522;7.682;2023-01-25T01:40:27;2.70;99.90
11650;DHT22;5881;48.522;7.682;2023-01-25T01:43:22;2.70;99.90
11650;DHT22;5881;48.522;7.682;2023-01-25T01:45:50;2.70;99.90
11650;DHT22;5881;48.522;7.682;2023-01-25T01:51:12;2.70;99.90
11650;DHT22;5881;48.522;7.682;2023-01-25T01:53:42;2.80;99.90
11650;DHT22;5881;48.522;7.682;2023-01-25T01:56:11;2.70;99.90
11650;DHT22;5881;48.522;7.682;2023-01-25T01:58:38;2.70;99.90
11650;DHT22;5881;48.522;7.682;2023-01-25T02:01:05;2.70;99.90
11650;DHT22;5881;48.522;7.682;2023-01-25T02:03:31;2.70;99.90
11650;DHT22;5881;48.522;7.682;2023-01-25T02:06:13;2.70;99.90
11650;DHT22;5881;48.522;7.682;2023-01-25T02:08:39;2.70;99.90
11650;DHT22;5881;48.522;7.682;2023-01-25T02:11:08;2.70;99.90
11650;DHT22;5881;48.522;7.682;2023-01-25T02:13:35;2.90;99.90
11650;DHT22;5881;48.522;7.682;2023-01-25T02:16:01;2.70;99.90
11650;DHT22;5881;48.522;7.682;2023-01-25T02:18:28;2.70;99.90
11650;DHT22;5881;48.522;7.682;2023-01-25T02:20:56;2.60;99.90
11650;DHT22;5881;48.522;7.682;2023-01-25T02:23:56;2.70;99.90
11650;DHT22;5881;48.522;7.682;2023-01-25T02:26:24;2.70;99.90
11650;DHT22;5881;48.522;7.682;2023-01-25T02:28:54;2.70;99.90
11650;DHT22;5881;48.522;7.682;2023-01-25T02:31:21;2.60;99.90
11650;DHT22;5881;48.522;7.682;2023-01-25T02:33:46;2.70;99.90
11650;DHT22;5881;48.522;7.682;2023-01-25T02:36:23;2.70;99.90
11650;DHT22;5881;48.522;7.682;2023-01-25T02:39:00;2.70;99.90
11650;DHT22;5881;48.522;7.682;2023-01-25T02:41:31;2.70;99.90
11650;DHT22;5881;48.522;7.682;2023-01-25T02:43:58;2.60;99.90
11650;DHT22;5881;48.522;7.682;2023-01-25T02:46:27;2.60;99.90
11650;DHT22;5881;48.522;7.682;2023-01-25T02:48:54;2.70;99.90
11650;DHT22;5881;48.522;7.682;2023-01-25T02:51:22;2.60;99.90
11650;DHT22;5881;48.522;7.682;2023-01-25T02:53:48;2.60;99.90
11650;DHT22;5881;48.522;7.682;2023-01-25T02:56:14;2.60;99.90
11650;DHT22;5881;48.522;7.682;2023-01-25T02:58:40;2.60;99.90
11650;DHT22;5881;48.522;7.682;2023-01-25T03:01:06;2.60;99.90
11650;DHT22;5881;48.522;7.682;2023-01-25T03:03:32;2.60;99.90
11650;DHT22;5881;48.522;7.682;2023-01-25T03:05:57;2.60;99.90
11650;DHT22;5881;48.522;7.682;2023-01-25T03:08:23;2.60;99.90
11650;DHT22;5881;48.522;7.682;2023-01-25T03:10:48;2.60;99.90
11650;DHT22;5881;48.522;7.682;2023-01-25T03:13:14;2.50;99.90
11650;DHT22;5881;48.522;7.682;2023-01-25T03:15:40;2.60;99.90
11650;DHT22;5881;48.522;7.682;2023-01-25T03:18:05;2.50;99.90
11650;DHT22;5881;48.522;7.682;2023-01-25T03:20:31;2.50;99.90
11650;DHT22;5881;48.522;7.682;2023-01-25T03:22:57;2.60;99.90
11650;DHT22;5881;48.522;7.682;2023-01-25T03:25:22;2.60;99.90
11650;DHT22;5881;48.522;7.682;2023-01-25T03:27:48;2.50;99.90
11650;DHT22;5881;48.522;7.682;2023-01-25T03:30:14;2.60;99.90
11650;DHT22;5881;48.522;7.682;2023-01-25T03:32:39;2.60;99.90
11650;DHT22;5881;48.522;7.682;2023-01-25T03:35:05;2.60;99.90
11650;DHT22;5881;48.522;7.682;2023-01-25T03:37:31;2.60;99.90
11650;DHT22;5881;48.522;7.682;2023-01-25T03:39:58;2.60;99.90
11650;DHT22;5881;48.522;7.682;2023-01-25T03:42:24;2.60;99.90
11650;DHT22;5881;48.522;7.682;2023-01-25T03:44:49;2.60;99.90
11650;DHT22;5881;48.522;7.682;2023-01-25T03:47:15;2.60;99.90
11650;DHT22;5881;48.522;7.682;2023-01-25T03:49:41;2.60;99.90
11650;DHT22;5881;48.522;7.682;2023-01-25T03:52:07;2.60;99.90
11650;DHT22;5881;48.522;7.682;2023-01-25T03:54:32;2.80;99.90
11650;DHT22;5881;48.522;7.682;2023-01-25T03:56:58;2.50;99.90
11650;DHT22;5881;48.522;7.682;2023-01-25T03:59:24;2.60;99.90
11650;DHT22;5881;48.522;7.682;2023-01-25T04:01:49;2.60;99.90
11650;DHT22;5881;48.522;7.682;2023-01-25T04:04:15;2.50;99.90
11650;DHT22;5881;48.522;7.682;2023-01-25T04:06:41;2.60;99.90
11650;DHT22;5881;48.522;7.682;2023-01-25T04:09:07;2.60;99.90
11650;DHT22;5881;48.522;7.682;2023-01-25T04:11:33;2.60;99.90
11650;DHT22;5881;48.522;7.682;2023-01-25T04:13:58;2.60;99.90
11650;DHT22;5881;48.522;7.682;2023-01-25T04:16:24;2.60;99.90
11650;DHT22;5881;48.522;7.682;2023-01-25T04:18:50;2.60;99.90
11650;DHT22;5881;48.522;7.682;2023-01-25T04:21:15;2.60;99.90
11650;DHT22;5881;48.522;7.682;2023-01-25T04:23:41;2.50;99.90
11650;DHT22;5881;48.522;7.682;2023-01-25T04:26:08;2.50;99.90
11650;DHT22;5881;48.522;7.682;2023-01-25T04:28:35;2.50;99.90
11650;DHT22;5881;48.522;7.682;2023-01-25T04:31:01;2.50;99.90
11650;DHT22;5881;48.522;7.682;2023-01-25T04:33:28;2.60;99.90
11650;DHT22;5881;48.522;7.682;2023-01-25T04:35:54;2.50;99.90
11650;DHT22;5881;48.522;7.682;2023-01-25T04:38:20;2.60;99.90
11650;DHT22;5881;48.522;7.682;2023-01-25T04:40:46;2.60;99.90
11650;DHT22;5881;48.522;7.682;2023-01-25T04:43:15;2.50;99.90
11650;DHT22;5881;48.522;7.682;2023-01-25T04:45:41;2.50;99.90
11650;DHT22;5881;48.522;7.682;2023-01-25T04:48:09;2.50;99.90
11650;DHT22;5881;48.522;7.682;2023-01-25T04:50:36;2.50;99.90
11650;DHT22;5881;48.522;7.682;2023-01-25T04:53:02;2.50;99.90
11650;DHT22;5881;48.522;7.682;2023-01-25T04:55:27;2.50;99.90
11650;DHT22;5881;48.522;7.682;2023-01-25T04:57:53;2.50;99.90
11650;DHT22;5881;48.522;7.682;2023-01-25T05:00:19;2.50;99.90
11650;DHT22;5881;48.522;7.682;2023-01-25T05:02:45;2.50;99.90
11650;DHT22;5881;48.522;7.682;2023-01-25T05:05:10;2.50;99.90
11650;DHT22;5881;48.522;7.682;2023-01-25T05:07:36;2.60;99.90
11650;DHT22;5881;48.522;7.682;2023-01-25T05:10:02;2.50;99.90
11650;DHT22;5881;48.522;7.682;2023-01-25T05:12:28;2.50;99.90
11650;DHT22;5881;48.522;7.682;2023-01-25T05:14:53;2.50;99.90
11650;DHT22;5881;48.522;7.682;2023-01-25T05:17:19;2.50;99.90
11650;DHT22;5881;48.522;7.682;2023-01-25T05:19:44;2.60;99.90
11650;DHT22;5881;48.522;7.682;2023-01-25T05:22:13;2.50;99.90
11650;DHT22;5881;48.522;7.682;2023-01-25T05:24:39;2.50;99.90
11650;DHT22;5881;48.522;7.682;2023-01-25T05:27:11;2.50;99.90
11650;DHT22;5881;48.522;7.682;2023-01-25T05:29:39;2.50;99.90
11650;DHT22;5881;48.522;7.682;2023-01-25T05:32:10;2.50;99.90
11650;DHT22;5881;48.522;7.682;2023-01-25T05:34:36;2.50;99.90
11650;DHT22;5881;48.522;7.682;2023-01-25T05:37:03;2.40;99.90
11650;DHT22;5881;48.522;7.682;2023-01-25T05:39:29;2.40;99.90
11650;DHT22;5881;48.522;7.682;2023-01-25T05:41:55;2.40;99.90
11650;DHT22;5881;48.522;7.682;2023-01-25T05:44:21;2.50;99.90
11650;DHT22;5881;48.522;7.682;2023-01-25T05:46:47;2.50;99.90
11650;DHT22;5881;48.522;7.682;2023-01-25T05:49:13;2.40;99.90
11650;DHT22;5881;48.522;7.682;2023-01-25T05:51:39;2.40;99.90
11650;DHT22;5881;48.522;7.682;2023-01-25T05:54:05;2.40;99.90
11650;DHT22;5881;48.522;7.682;2023-01-25T05:56:32;2.50;99.90
11650;DHT22;5881;48.522;7.682;2023-01-25T05:58:59;2.50;99.90
11650;DHT22;5881;48.522;7.682;2023-01-25T06:01:26;2.40;99.90
11650;DHT22;5881;48.522;7.682;2023-01-25T06:03:52;2.40;99.90
11650;DHT22;5881;48.522;7.682;2023-01-25T06:06:19;2.40;99.90
11650;DHT22;5881;48.522;7.682;2023-01-25T06:08:45;2.50;99.90
11650;DHT22;5881;48.522;7.682;2023-01-25T06:11:21;2.50;99.90
11650;DHT22;5881;48.522;7.682;2023-01-25T06:13:48;2.50;99.90
11650;DHT22;5881;48.522;7.682;2023-01-25T06:16:18;2.50;99.90
11650;DHT22;5881;48.522;7.682;2023-01-25T06:18:45;2.40;99.90
11650;DHT22;5881;48.522;7.682;2023-01-25T06:21:10;2.40;99.90
11650;DHT22;5881;48.522;7.682;2023-01-25T06:23:36;2.40;99.90
11650;DHT22;5881;48.522;7.682;2023-01-25T06:26:04;2.40;99.90
11650;DHT22;5881;48.522;7.682;2023-01-25T06:28:32;2.40;99.90
11650;DHT22;5881;48.522;7.682;2023-01-25T06:31:12;2.50;99.90
11650;DHT22;5881;48.522;7.682;2023-01-25T06:33:39;2.40;99.90
11650;DHT22;5881;48.522;7.682;2023-01-25T06:36:09;2.40;99.90
11650;DHT22;5881;48.522;7.682;2023-01-25T06:38:35;2.40;99.90
11650;DHT22;5881;48.522;7.682;2023-01-25T06:41:02;2.40;99.90
11650;DHT22;5881;48.522;7.682;2023-01-25T06:43:28;2.50;99.90
11650;DHT22;5881;48.522;7.682;2023-01-25T06:46:02;2.50;99.90
11650;DHT22;5881;48.522;7.682;2023-01-25T06:48:29;2.50;99.90
11650;DHT22;5881;48.522;7.682;2023-01-25T06:50:57;2.40;99.90
11650;DHT22;5881;48.522;7.682;2023-01-25T06:53:27;2.50;99.90
11650;DHT22;5881;48.522;7.682;2023-01-25T06:56:02;2.40;99.90
11650;DHT22;5881;48.522;7.682;2023-01-25T06:58:28;2.40;99.90
11650;DHT22;5881;48.522;7.682;2023-01-25T07:01:01;2.40;99.90
11650;DHT22;5881;48.522;7.682;2023-01-25T07:03:28;2.40;99.90
11650;DHT22;5881;48.522;7.682;2023-01-25T07:05:59;2.40;99.90
11650;DHT22;5881;48.522;7.682;2023-01-25T07:08:25;2.40;99.90
11650;DHT22;5881;48.522;7.682;2023-01-25T07:10:56;2.50;99.90
11650;DHT22;5881;48.522;7.682;2023-01-25T07:13:22;2.40;99.90
11650;DHT22;5881;48.522;7.682;2023-01-25T07:15:56;2.40;99.90
11650;DHT22;5881;48.522;7.682;2023-01-25T07:18:22;2.40;99.90
11650;DHT22;5881;48.522;7.682;2023-01-25T07:20:48;2.40;99.90
11650;DHT22;5881;48.522;7.682;2023-01-25T07:23:14;2.50;99.90
11650;DHT22;5881;48.522;7.682;2023-01-25T07:25:47;2.50;99.90
11650;DHT22;5881;48.522;7.682;2023-01-25T07:28:14;2.50;99.90
11650;DHT22;5881;48.522;7.682;2023-01-25T07:30:40;2.50;99.90
11650;DHT22;5881;48.522;7.682;2023-01-25T07:33:07;2.40;99.90
11650;DHT22;5881;48.522;7.682;2023-01-25T07:35:33;2.50;99.90
11650;DHT22;5881;48.522;7.682;2023-01-25T07:37:58;2.50;99.90
11650;DHT22;5881;48.522;7.682;2023-01-25T07:40:24;2.60;99.90
11650;DHT22;5881;48.522;7.682;2023-01-25T07:42:50;2.50;99.90
11650;DHT22;5881;48.522;7.682;2023-01-25T07:45:17;2.60;99.90
11650;DHT22;5881;48.522;7.682;2023-01-25T07:47:42;2.50;99.90
11650;DHT22;5881;48.522;7.682;2023-01-25T07:50:09;2.70;99.90
11650;DHT22;5881;48.522;7.682;2023-01-25T07:52:38;2.60;99.90
11650;DHT22;5881;48.522;7.682;2023-01-25T07:55:03;2.60;99.90
11650;DHT22;5881;48.522;7.682;2023-01-25T07:57:29;2.60;99.90
11650;DHT22;5881;48.522;7.682;2023-01-25T07:59:55;2.60;99.90
11650;DHT22;5881;48.522;7.682;2023-01-25T08:02:21;2.60;99.90
11650;DHT22;5881;48.522;7.682;2023-01-25T08:04:47;2.60;99.90
11650;DHT22;5881;48.522;7.682;2023-01-25T08:07:13;2.60;99.90
11650;DHT22;5881;48.522;7.682;2023-01-25T08:09:40;2.60;99.90
11650;DHT22;5881;48.522;7.682;2023-01-25T08:12:06;2.60;99.90
11650;DHT22;5881;48.522;7.682;2023-01-25T08:14:32;2.70;99.90
11650;DHT22;5881;48.522;7.682;2023-01-25T08:16:58;2.70;99.90
11650;DHT22;5881;48.522;7.682;2023-01-25T08:19:24;2.70;99.90
11650;DHT22;5881;48.522;7.682;2023-01-25T08:21:50;2.60;99.90
11650;DHT22;5881;48.522;7.682;2023-01-25T08:24:16;2.60;99.90
11650;DHT22;5881;48.522;7.682;2023-01-25T08:26:42;2.60;99.90
11650;DHT22;5881;48.522;7.682;2023-01-25T08:29:09;2.60;99.90
11650;DHT22;5881;48.522;7.682;2023-01-25T08:31:35;2.60;99.90
11650;DHT22;5881;48.522;7.682;2023-01-25T08:34:01;2.60;99.90
11650;DHT22;5881;48.522;7.682;2023-01-25T08:36:27;2.60;99.90
11650;DHT22;5881;48.522;7.682;2023-01-25T08:38:55;2.60;99.90
11650;DHT22;5881;48.522;7.682;2023-01-25T08:41:21;2.70;99.90
11650;DHT22;5881;48.522;7.682;2023-01-25T08:43:47;2.70;99.90
11650;DHT22;5881;48.522;7.682;2023-01-25T08:46:15;2.60;99.90
11650;DHT22;5881;48.522;7.682;2023-01-25T08:48:41;2.60;99.90
11650;DHT22;5881;48.522;7.682;2023-01-25T08:51:08;2.60;99.90
11650;DHT22;5881;48.522;7.682;2023-01-25T08:53:33;2.60;99.90
11650;DHT22;5881;48.522;7.682;2023-01-25T08:56:04;2.50;99.90
11650;DHT22;5881;48.522;7.682;2023-01-25T08:58:30;2.50;99.90
11650;DHT22;5881;48.522;7.682;2023-01-25T09:01:01;2.60;99.90
11650;DHT22;5881;48.522;7.682;2023-01-25T09:03:27;2.70;99.90
11650;DHT22;5881;48.522;7.682;2023-01-25T09:05:53;2.80;99.90
11650;DHT22;5881;48.522;7.682;2023-01-25T09:08:19;2.90;99.90
11650;DHT22;5881;48.522;7.682;2023-01-25T09:10:44;2.90;99.90
11650;DHT22;5881;48.522;7.682;2023-01-25T09:13:10;3.00;99.90
11650;DHT22;5881;48.522;7.682;2023-01-25T09:15:37;3.00;99.90
11650;DHT22;5881;48.522;7.682;2023-01-25T09:18:02;3.00;99.90
11650;DHT22;5881;48.522;7.682;2023-01-25T09:20:28;3.00;99.90
11650;DHT22;5881;48.522;7.682;2023-01-25T09:22:54;3.00;99.90
11650;DHT22;5881;48.522;7.682;2023-01-25T09:25:20;3.40;99.90
11650;DHT22;5881;48.522;7.682;2023-01-25T09:27:48;3.10;99.90
11650;DHT22;5881;48.522;7.682;2023-01-25T09:30:15;3.10;99.90
11650;DHT22;5881;48.522;7.682;2023-01-25T09:32:40;3.00;99.90
11650;DHT22;5881;48.522;7.682;2023-01-25T09:35:06;2.90;99.90
11650;DHT22;5881;48.522;7.682;2023-01-25T09:37:32;2.80;99.90
11650;DHT22;5881;48.522;7.682;2023-01-25T09:39:58;3.00;99.90
11650;DHT22;5881;48.522;7.682;2023-01-25T09:42:50;2.90;99.90
11650;DHT22;5881;48.522;7.682;2023-01-25T09:45:28;3.10;99.90
11650;DHT22;5881;48.522;7.682;2023-01-25T09:48:08;3.00;99.90
11650;DHT22;5881;48.522;7.682;2023-01-25T09:51:09;3.00;99.90
11650;DHT22;5881;48.522;7.682;2023-01-25T09:53:33;2.80;99.90
11650;DHT22;5881;48.522;7.682;2023-01-25T09:56:11;2.90;99.90
11650;DHT22;5881;48.522;7.682;2023-01-25T09:58:43;2.90;99.90
11650;DHT22;5881;48.522;7.682;2023-01-25T10:04:21;3.00;99.90
11650;DHT22;5881;48.522;7.682;2023-01-25T10:06:52;3.00;99.90
11650;DHT22;5881;48.522;7.682;2023-01-25T10:09:26;3.00;99.90
11650;DHT22;5881;48.522;7.682;2023-01-25T10:12:01;3.10;99.90
11650;DHT22;5881;48.522;7.682;2023-01-25T10:14:28;3.00;99.90
11650;DHT22;5881;48.522;7.682;2023-01-25T10:17:26;3.00;99.90
11650;DHT22;5881;48.522;7.682;2023-01-25T10:25:45;3.10;99.90
11650;DHT22;5881;48.522;7.682;2023-01-25T10:28:43;3.00;99.90
11650;DHT22;5881;48.522;7.682;2023-01-25T10:31:19;3.20;99.90
11650;DHT22;5881;48.522;7.682;2023-01-25T10:33:48;3.30;99.90
11650;DHT22;5881;48.522;7.682;2023-01-25T10:36:16;3.20;99.90
11650;DHT22;5881;48.522;7.682;2023-01-25T10:38:44;3.10;99.90
11650;DHT22;5881;48.522;7.682;2023-01-25T10:41:24;3.20;99.90
11650;DHT22;5881;48.522;7.682;2023-01-25T10:43:52;3.20;99.90
11650;DHT22;5881;48.522;7.682;2023-01-25T10:49:41;3.20;99.90
11650;DHT22;5881;48.522;7.682;2023-01-25T10:52:27;3.20;99.90
11650;DHT22;5881;48.522;7.682;2023-01-25T10:55:17;3.10;99.90
11650;DHT22;5881;48.522;7.682;2023-01-25T10:57:48;3.10;99.90
11650;DHT22;5881;48.522;7.682;2023-01-25T11:00:35;3.20;99.90
11650;DHT22;5881;48.522;7.682;2023-01-25T11:03:02;3.20;99.90
11650;DHT22;5881;48.522;7.682;2023-01-25T11:05:29;3.20;99.90
11650;DHT22;5881;48.522;7.682;2023-01-25T11:07:56;3.20;99.90
11650;DHT22;5881;48.522;7.682;2023-01-25T11:10:32;3.30;99.90
11650;DHT22;5881;48.522;7.682;2023-01-25T11:15:45;3.20;99.90
11650;DHT22;5881;48.522;7.682;2023-01-25T11:18:15;3.20;99.90
11650;DHT22;5881;48.522;7.682;2023-01-25T11:20:42;3.20;99.90
11650;DHT22;5881;48.522;7.682;2023-01-25T11:23:22;3.20;99.90
11650;DHT22;5881;48.522;7.682;2023-01-25T11:25:49;3.20;99.90
11650;DHT22;5881;48.522;7.682;2023-01-25T11:28:15;3.10;99.90
11650;DHT22;5881;48.522;7.682;2023-01-25T11:30:42;3.10;99.90
11650;DHT22;5881;48.522;7.682;2023-01-25T11:33:12;3.10;99.90
11650;DHT22;5881;48.522;7.682;2023-01-25T11:38:37;3.10;99.90
11650;DHT22;5881;48.522;7.682;2023-01-25T11:41:28;3.10;99.90
11650;DHT22;5881;48.522;7.682;2023-01-25T11:47:18;3.10;99.90
11650;DHT22;5881;48.522;7.682;2023-01-25T11:49:43;3.10;99.90
11650;DHT22;5881;48.522;7.682;2023-01-25T11:55:02;3.10;99.90
11650;DHT22;5881;48.522;7.682;2023-01-25T12:02:59;3.20;99.90
11650;DHT22;5881;48.522;7.682;2023-01-25T12:19:55;3.20;99.90
11650;DHT22;5881;48.522;7.682;2023-01-25T12:22:41;3.20;99.90
11650;DHT22;5881;48.522;7.682;2023-01-25T12:28:05;3.20;99.90
11650;DHT22;5881;48.522;7.682;2023-01-25T12:33:28;3.20;99.90
11650;DHT22;5881;48.522;7.682;2023-01-25T12:38:38;3.20;99.90
11650;DHT22;5881;48.522;7.682;2023-01-25T12:46:31;3.20;99.90
11650;DHT22;5881;48.522;7.682;2023-01-25T12:49:05;3.20;99.90
11650;DHT22;5881;48.522;7.682;2023-01-25T12:51:37;3.20;99.90
11650;DHT22;5881;48.522;7.682;2023-01-25T12:54:18;3.20;99.90
11650;DHT22;5881;48.522;7.682;2023-01-25T12:59:44;3.20;99.90
11650;DHT22;5881;48.522;7.682;2023-01-25T13:08:01;3.10;99.90
11650;DHT22;5881;48.522;7.682;2023-01-25T13:10:33;3.10;99.90
11650;DHT22;5881;48.522;7.682;2023-01-25T13:13:02;3.00;99.90
11650;DHT22;5881;48.522;7.682;2023-01-25T13:15:43;3.10;99.90
11650;DHT22;5881;48.522;7.682;2023-01-25T13:20:55;3.10;99.90
11650;DHT22;5881;48.522;7.682;2023-01-25T13:28:48;3.00;99.90
11650;DHT22;5881;48.522;7.682;2023-01-25T13:39:49;2.90;99.90
11650;DHT22;5881;48.522;7.682;2023-01-25T13:42:22;2.90;99.90
11650;DHT22;5881;48.522;7.682;2023-01-25T13:45:12;2.90;99.90
11650;DHT22;5881;48.522;7.682;2023-01-25T13:47:39;2.90;99.90
11650;DHT22;5881;48.522;7.682;2023-01-25T13:50:23;3.00;99.90
11650;DHT22;5881;48.522;7.682;2023-01-25T13:55:25;2.90;99.90
11650;DHT22;5881;48.522;7.682;2023-01-25T13:57:51;2.90;99.90
11650;DHT22;5881;48.522;7.682;2023-01-25T14:00:17;2.90;99.90
11650;DHT22;5881;48.522;7.682;2023-01-25T14:02:44;2.90;99.90
11650;DHT22;5881;48.522;7.682;2023-01-25T14:05:21;2.90;99.90
11650;DHT22;5881;48.522;7.682;2023-01-25T14:07:49;2.90;99.90
11650;DHT22;5881;48.522;7.682;2023-01-25T14:10:21;2.80;99.90
11650;DHT22;5881;48.522;7.682;2023-01-25T14:12:50;2.80;99.90
11650;DHT22;5881;48.522;7.682;2023-01-25T14:17:42;2.90;99.90
11650;DHT22;5881;48.522;7.682;2023-01-25T14:20:25;2.90;99.90
11650;DHT22;5881;48.522;7.682;2023-01-25T14:22:51;2.90;99.90
11650;DHT22;5881;48.522;7.682;2023-01-25T14:25:18;2.80;99.90
11650;DHT22;5881;48.522;7.682;2023-01-25T14:27:50;2.80;99.90
11650;DHT22;5881;48.522;7.682;2023-01-25T14:30:24;2.90;99.90
11650;DHT22;5881;48.522;7.682;2023-01-25T14:33:33;2.90;99.90
11650;DHT22;5881;48.522;7.682;2023-01-25T14:35:42;2.80;99.90
11650;DHT22;5881;48.522;7.682;2023-01-25T14:40:48;2.80;99.90
11650;DHT22;5881;48.522;7.682;2023-01-25T14:43:16;2.70;99.90
11650;DHT22;5881;48.522;7.682;2023-01-25T14:45:42;2.70;99.90
11650;DHT22;5881;48.522;7.682;2023-01-25T14:48:33;2.60;99.90
11650;DHT22;5881;48.522;7.682;2023-01-25T14:51:14;2.60;99.90
11650;DHT22;5881;48.522;7.682;2023-01-25T14:53:45;2.70;99.90
11650;DHT22;5881;48.522;7.682;2023-01-25T14:58:43;2.70;99.90
11650;DHT22;5881;48.522;7.682;2023-01-25T15:01:13;2.60;99.90
11650;DHT22;5881;48.522;7.682;2023-01-25T15:03:48;2.70;99.90
11650;DHT22;5881;48.522;7.682;2023-01-25T15:06:14;2.70;99.90
11650;DHT22;5881;48.522;7.682;2023-01-25T15:08:40;2.70;99.90
11650;DHT22;5881;48.522;7.682;2023-01-25T15:11:26;2.70;99.90
11650;DHT22;5881;48.522;7.682;2023-01-25T15:14:18;2.60;99.90
11650;DHT22;5881;48.522;7.682;2023-01-25T15:16:44;2.60;99.90
11650;DHT22;5881;48.522;7.682;2023-01-25T15:19:27;2.50;99.90
11650;DHT22;5881;48.522;7.682;2023-01-25T15:21:54;2.50;99.90
11650;DHT22;5881;48.522;7.682;2023-01-25T15:24:19;2.60;99.90
11650;DHT22;5881;48.522;7.682;2023-01-25T15:26:49;2.50;99.90
11650;DHT22;5881;48.522;7.682;2023-01-25T15:29:20;2.60;99.90
11650;DHT22;5881;48.522;7.682;2023-01-25T15:31:50;2.50;99.90
11650;DHT22;5881;48.522;7.682;2023-01-25T15:34:19;2.60;99.90
11650;DHT22;5881;48.522;7.682;2023-01-25T15:36:45;2.60;99.90
11650;DHT22;5881;48.522;7.682;2023-01-25T15:39:14;2.60;99.90
11650;DHT22;5881;48.522;7.682;2023-01-25T15:41:40;2.50;99.90
11650;DHT22;5881;48.522;7.682;2023-01-25T15:44:06;2.60;99.90
11650;DHT22;5881;48.522;7.682;2023-01-25T15:46:32;2.60;99.90
11650;DHT22;5881;48.522;7.682;2023-01-25T15:48:58;2.40;99.90
11650;DHT22;5881;48.522;7.682;2023-01-25T15:51:25;2.40;99.90
11650;DHT22;5881;48.522;7.682;2023-01-25T15:53:51;2.40;99.90
11650;DHT22;5881;48.522;7.682;2023-01-25T15:56:19;2.40;99.90
11650;DHT22;5881;48.522;7.682;2023-01-25T15:58:53;2.40;99.90
11650;DHT22;5881;48.522;7.682;2023-01-25T16:01:21;2.40;99.90
11650;DHT22;5881;48.522;7.682;2023-01-25T16:03:47;2.40;99.90
11650;DHT22;5881;48.522;7.682;2023-01-25T16:09:23;2.40;99.90
11650;DHT22;5881;48.522;7.682;2023-01-25T16:11:51;2.40;99.90
11650;DHT22;5881;48.522;7.682;2023-01-25T16:14:17;2.30;99.90
11650;DHT22;5881;48.522;7.682;2023-01-25T16:16:46;2.30;99.90
11650;DHT22;5881;48.522;7.682;2023-01-25T16:19:15;2.30;99.90
11650;DHT22;5881;48.522;7.682;2023-01-25T16:21:41;2.40;99.90
11650;DHT22;5881;48.522;7.682;2023-01-25T16:24:08;2.30;99.90
11650;DHT22;5881;48.522;7.682;2023-01-25T16:26:42;2.30;99.90
11650;DHT22;5881;48.522;7.682;2023-01-25T16:29:09;2.30;99.90
11650;DHT22;5881;48.522;7.682;2023-01-25T16:31:35;2.30;99.90
11650;DHT22;5881;48.522;7.682;2023-01-25T16:34:01;2.40;99.90
11650;DHT22;5881;48.522;7.682;2023-01-25T16:36:27;2.30;99.90
11650;DHT22;5881;48.522;7.682;2023-01-25T16:38:52;2.30;99.90
11650;DHT22;5881;48.522;7.682;2023-01-25T16:41:18;2.30;99.90
11650;DHT22;5881;48.522;7.682;2023-01-25T16:43:45;2.20;99.90
11650;DHT22;5881;48.522;7.682;2023-01-25T16:46:20;2.30;99.90
11650;DHT22;5881;48.522;7.682;2023-01-25T16:48:47;2.30;99.90
11650;DHT22;5881;48.522;7.682;2023-01-25T16:51:18;2.30;99.90
11650;DHT22;5881;48.522;7.682;2023-01-25T16:53:46;2.20;99.90
11650;DHT22;5881;48.522;7.682;2023-01-25T16:56:21;2.20;99.90
11650;DHT22;5881;48.522;7.682;2023-01-25T16:58:48;2.20;99.90
11650;DHT22;5881;48.522;7.682;2023-01-25T17:01:15;2.20;99.90
11650;DHT22;5881;48.522;7.682;2023-01-25T17:03:45;2.30;99.90
11650;DHT22;5881;48.522;7.682;2023-01-25T17:06:20;2.20;99.90
11650;DHT22;5881;48.522;7.682;2023-01-25T17:08:46;2.20;99.90
11650;DHT22;5881;48.522;7.682;2023-01-25T17:11:13;2.20;99.90
11650;DHT22;5881;48.522;7.682;2023-01-25T17:13:38;2.30;99.90
11650;DHT22;5881;48.522;7.682;2023-01-25T17:16:04;2.20;99.90
11650;DHT22;5881;48.522;7.682;2023-01-25T17:18:30;2.20;99.90
11650;DHT22;5881;48.522;7.682;2023-01-25T17:21:00;2.20;99.90
11650;DHT22;5881;48.522;7.682;2023-01-25T17:23:27;2.30;99.90
11650;DHT22;5881;48.522;7.682;2023-01-25T17:25:54;2.20;99.90
11650;DHT22;5881;48.522;7.682;2023-01-25T17:28:20;2.20;99.90
11650;DHT22;5881;48.522;7.682;2023-01-25T17:30:46;2.10;99.90
11650;DHT22;5881;48.522;7.682;2023-01-25T17:33:11;2.20;99.90
11650;DHT22;5881;48.522;7.682;2023-01-25T17:35:38;2.20;99.90
11650;DHT22;5881;48.522;7.682;2023-01-25T17:38:04;2.10;99.90
11650;DHT22;5881;48.522;7.682;2023-01-25T17:40:30;2.10;99.90
11650;DHT22;5881;48.522;7.682;2023-01-25T17:42:56;2.10;99.90
11650;DHT22;5881;48.522;7.682;2023-01-25T17:45:21;2.10;99.90
11650;DHT22;5881;48.522;7.682;2023-01-25T17:47:47;2.20;99.90
11650;DHT22;5881;48.522;7.682;2023-01-25T17:50:12;2.20;99.90
11650;DHT22;5881;48.522;7.682;2023-01-25T17:52:38;2.10;99.90